Time;durP1;ratioP1;P1;durP2;ratioP2;P2;SDS_P1;SDS_P2;PMS_P1;PMS_P2;Temp;Humidity;BMP_temperature;BMP_pressure;BME280_temperature;BME280_humidity;BME280_pressure;Samples;Min_cycle;Max_cycle;Signal;HPM_P1;HPM_P2
2021/06/28 00:00:28;;;;;;;4.60;2.88;;;;;;;;;;5071659;28;20060;-50
2021/06/28 00:02:54;;;;;;;3.15;2.47;;;;;;;;;;5073237;28;20060;-50
2021/06/28 00:05:21;;;;;;;6.32;2.70;;;;;;;;;;5075791;28;20025;-50
2021/06/28 00:07:48;;;;;;;4.13;2.60;;;;;;;;;;5075543;28;20456;-50
2021/06/28 00:10:15;;;;;;;3.40;2.25;;;;;;;;;;5075205;28;20032;-51
2021/06/28 00:12:41;;;;;;;3.83;2.72;;;;;;;;;;5075649;28;20028;-50
2021/06/28 00:15:09;;;;;;;4.30;2.72;;;;;;;;;;5075676;28;20024;-51
2021/06/28 00:17:36;;;;;;;4.53;2.95;;;;;;;;;;5075831;28;20024;-50
2021/06/28 00:20:02;;;;;;;3.75;2.70;;;;;;;;;;5075407;28;20063;-51
2021/06/28 00:22:28;;;;;;;3.10;2.40;;;;;;;;;;5074742;28;20017;-50
2021/06/28 00:24:54;;;;;;;8.70;3.10;;;;;;;;;;5075631;28;20078;-50
2021/06/28 00:27:23;;;;;;;4.47;2.38;;;;;;;;;;5075767;28;20024;-51
2021/06/28 00:29:49;;;;;;;3.60;2.58;;;;;;;;;;5075496;28;20025;-51
2021/06/28 00:32:15;;;;;;;4.50;2.53;;;;;;;;;;5074505;28;20025;-50
2021/06/28 00:34:41;;;;;;;3.55;2.50;;;;;;;;;;5075408;28;20025;-50
2021/06/28 00:37:07;;;;;;;2.88;2.40;;;;;;;;;;5075156;28;20035;-50
2021/06/28 00:39:33;;;;;;;3.80;2.38;;;;;;;;;;5075142;28;20368;-51
2021/06/28 00:41:59;;;;;;;3.58;2.58;;;;;;;;;;5074280;28;20071;-51
2021/06/28 00:44:25;;;;;;;3.15;2.25;;;;;;;;;;5074789;28;20459;-50
2021/06/28 00:46:51;;;;;;;2.72;2.10;;;;;;;;;;5075490;28;20056;-50
2021/06/28 00:49:17;;;;;;;3.05;2.30;;;;;;;;;;5074873;28;20020;-50
2021/06/28 00:51:44;;;;;;;3.60;2.20;;;;;;;;;;5074139;28;20031;-51
2021/06/28 00:54:11;;;;;;;5.50;1.70;;;;;;;;;;5074536;28;20037;-50
2021/06/28 00:56:37;;;;;;;5.22;2.47;;;;;;;;;;5075149;28;20032;-50
2021/06/28 00:59:04;;;;;;;10.43;2.25;;;;;;;;;;5074758;28;20047;-50
2021/06/28 01:01:30;;;;;;;18.25;2.60;;;;;;;;;;5074398;28;20036;-50
2021/06/28 01:03:56;;;;;;;5.38;2.58;;;;;;;;;;5074646;28;20020;-50
2021/06/28 01:06:22;;;;;;;8.95;2.42;;;;;;;;;;5074468;28;20525;-50
2021/06/28 01:08:48;;;;;;;13.23;2.20;;;;;;;;;;5074375;28;20032;-51
2021/06/28 01:11:14;;;;;;;3.20;2.40;;;;;;;;;;5074114;28;20079;-50
2021/06/28 01:13:41;;;;;;;2.10;1.90;;;;;;;;;;5073995;28;20212;-51
2021/06/28 01:16:07;;;;;;;2.92;2.22;;;;;;;;;;5074126;28;20032;-51
2021/06/28 01:18:33;;;;;;;2.17;1.95;;;;;;;;;;5074420;28;20021;-50
2021/06/28 01:21:00;;;;;;;4.43;2.40;;;;;;;;;;5073046;28;20043;-50
2021/06/28 01:23:27;;;;;;;18.30;2.63;;;;;;;;;;5074375;28;20562;-50
2021/06/28 01:25:57;;;;;;;7.07;2.20;;;;;;;;;;5074365;28;20460;-50
2021/06/28 01:28:23;;;;;;;;;;;;;;;;;;5072750;28;20027;-51
2021/06/28 01:30:50;;;;;;;6.97;2.25;;;;;;;;;;5073574;28;19911;-51
2021/06/28 01:33:16;;;;;;;13.38;2.38;;;;;;;;;;5074351;28;20039;-50
2021/06/28 01:35:42;;;;;;;38.72;3.38;;;;;;;;;;5074334;28;20036;-50
2021/06/28 01:38:09;;;;;;;6.97;2.92;;;;;;;;;;5073736;28;20020;-50
2021/06/28 01:40:35;;;;;;;4.78;2.17;;;;;;;;;;5073543;28;20043;-50
2021/06/28 01:43:01;;;;;;;13.35;3.08;;;;;;;;;;5073721;28;20028;-50
2021/06/28 01:45:27;;;;;;;3.22;2.13;;;;;;;;;;5073830;28;20025;-51
2021/06/28 01:47:54;;;;;;;9.07;2.30;;;;;;;;;;5074094;28;20095;-50
2021/06/28 01:50:21;;;;;;;3.08;2.03;;;;;;;;;;5073277;28;20040;-50
2021/06/28 01:52:47;;;;;;;26.52;2.33;;;;;;;;;;5073731;28;20077;-50
2021/06/28 01:55:14;;;;;;;3.17;2.65;;;;;;;;;;5073893;28;20024;-50
2021/06/28 01:57:44;;;;;;;3.88;2.13;;;;;;;;;;5073714;28;20025;-50
2021/06/28 02:00:11;;;;;;;3.10;2.10;;;;;;;;;;5072868;28;20111;-51
2021/06/28 02:02:37;;;;;;;2.28;1.95;;;;;;;;;;5073928;28;20398;-50
2021/06/28 02:05:04;;;;;;;4.05;2.85;;;;;;;;;;5073636;28;20642;-51
2021/06/28 02:07:30;;;;;;;3.25;2.35;;;;;;;;;;5073300;28;20467;-50
2021/06/28 02:09:56;;;;;;;4.57;2.15;;;;;;;;;;5073351;28;20102;-51
2021/06/28 02:12:25;;;;;;;5.65;2.22;;;;;;;;;;5072599;28;20020;-50
2021/06/28 02:14:51;;;;;;;2.90;2.22;;;;;;;;;;5073382;28;20103;-50
2021/06/28 02:17:18;;;;;;;4.90;2.38;;;;;;;;;;5070221;28;20123;-50
2021/06/28 02:19:46;;;;;;;4.75;2.25;;;;;;;;;;5072953;28;20048;-50
2021/06/28 02:22:12;;;;;;;2.63;2.42;;;;;;;;;;5072730;28;20365;-50
2021/06/28 02:24:38;;;;;;;2.40;2.20;;;;;;;;;;5073290;28;20024;-50
2021/06/28 02:27:04;;;;;;;4.60;1.95;;;;;;;;;;5072903;28;20360;-51
2021/06/28 02:29:30;;;;;;;5.15;3.17;;;;;;;;;;5073044;28;20400;-50
2021/06/28 02:31:56;;;;;;;4.65;2.28;;;;;;;;;;5072274;28;20112;-51
2021/06/28 02:34:22;;;;;;;2.72;2.00;;;;;;;;;;5072514;28;20075;-50
2021/06/28 02:36:48;;;;;;;2.63;1.65;;;;;;;;;;5073033;28;20033;-50
2021/06/28 02:39:14;;;;;;;2.58;2.08;;;;;;;;;;5073019;28;20459;-50
2021/06/28 02:41:41;;;;;;;5.85;2.30;;;;;;;;;;5066083;28;20028;-50
2021/06/28 02:44:08;;;;;;;3.05;2.60;;;;;;;;;;5072544;28;20021;-50
2021/06/28 02:46:34;;;;;;;3.08;2.17;;;;;;;;;;5072613;28;20020;-50
2021/06/28 02:49:00;;;;;;;5.75;2.03;;;;;;;;;;5073024;28;20039;-50
2021/06/28 02:51:26;;;;;;;3.92;1.77;;;;;;;;;;5071901;28;20024;-50
2021/06/28 02:53:53;;;;;;;3.60;2.42;;;;;;;;;;5072794;28;20016;-50
2021/06/28 02:56:20;;;;;;;3.33;2.30;;;;;;;;;;5072432;28;20028;-51
2021/06/28 02:58:53;;;;;;;4.97;2.65;;;;;;;;;;5072603;28;20444;-50
2021/06/28 03:01:21;;;;;;;9.18;2.50;;;;;;;;;;5072209;28;20032;-50
2021/06/28 03:03:47;;;;;;;4.53;2.42;;;;;;;;;;5072797;28;20332;-50
2021/06/28 03:06:13;;;;;;;4.03;2.80;;;;;;;;;;5072469;28;20027;-50
2021/06/28 03:08:40;;;;;;;5.43;2.40;;;;;;;;;;5072439;28;20368;-50
2021/06/28 03:11:06;;;;;;;5.20;2.78;;;;;;;;;;5072115;28;20029;-50
2021/06/28 03:13:33;;;;;;;4.30;2.60;;;;;;;;;;5072268;28;20364;-50
2021/06/28 03:15:59;;;;;;;5.53;2.53;;;;;;;;;;5072519;28;20467;-50
2021/06/28 03:18:25;;;;;;;3.92;2.20;;;;;;;;;;5072393;28;20024;-50
2021/06/28 03:20:52;;;;;;;4.10;2.75;;;;;;;;;;5071642;28;20107;-50
2021/06/28 03:23:18;;;;;;;7.55;2.25;;;;;;;;;;5072509;28;20021;-50
2021/06/28 03:25:44;;;;;;;2.83;2.53;;;;;;;;;;5072568;28;20028;-51
2021/06/28 03:28:10;;;;;;;15.27;3.25;;;;;;;;;;5072059;28;20366;-51
2021/06/28 03:30:36;;;;;;;4.50;2.55;;;;;;;;;;5071863;28;20448;-50
2021/06/28 03:33:03;;;;;;;4.40;2.47;;;;;;;;;;5072600;28;20030;-50
2021/06/28 03:35:30;;;;;;;5.63;2.80;;;;;;;;;;5072644;28;20024;-50
2021/06/28 03:37:56;;;;;;;3.60;2.28;;;;;;;;;;5073559;28;20024;-50
2021/06/28 03:40:22;;;;;;;5.95;2.33;;;;;;;;;;5075467;28;20037;-50
2021/06/28 03:42:48;;;;;;;4.68;2.75;;;;;;;;;;5075740;28;20027;-50
2021/06/28 03:45:14;;;;;;;5.38;2.58;;;;;;;;;;5076401;28;20029;-50
2021/06/28 03:47:41;;;;;;;3.42;2.50;;;;;;;;;;5076089;28;20024;-50
2021/06/28 03:50:08;;;;;;;3.70;2.40;;;;;;;;;;5075525;28;20067;-51
2021/06/28 03:52:35;;;;;;;12.45;2.80;;;;;;;;;;5075776;28;20081;-51
2021/06/28 03:55:01;;;;;;;2.92;2.20;;;;;;;;;;5075563;28;20391;-50
2021/06/28 03:57:27;;;;;;;5.00;3.00;;;;;;;;;;5075417;28;20020;-51
2021/06/28 03:59:53;;;;;;;3.88;2.38;;;;;;;;;;5075937;28;20036;-50
2021/06/28 04:02:19;;;;;;;8.50;2.78;;;;;;;;;;5075090;28;20341;-51
2021/06/28 04:04:49;;;;;;;2.42;2.05;;;;;;;;;;5075922;28;20367;-51
2021/06/28 04:07:17;;;;;;;3.63;2.47;;;;;;;;;;5075607;28;20025;-51
2021/06/28 04:09:44;;;;;;;3.78;2.65;;;;;;;;;;5075437;28;20447;-50
2021/06/28 04:12:10;;;;;;;3.92;2.80;;;;;;;;;;5074901;28;20035;-50
2021/06/28 04:14:37;;;;;;;3.75;2.53;;;;;;;;;;5075799;28;20017;-50
2021/06/28 04:17:04;;;;;;;4.30;2.85;;;;;;;;;;5075699;28;20474;-50
2021/06/28 04:19:30;;;;;;;4.00;2.15;;;;;;;;;;5075373;28;20123;-51
2021/06/28 04:21:55;;;;;;;3.15;2.20;;;;;;;;;;5074692;28;20148;-50
2021/06/28 04:24:21;;;;;;;3.85;2.67;;;;;;;;;;5073375;28;20107;-50
2021/06/28 04:26:47;;;;;;;4.53;2.45;;;;;;;;;;5062625;28;20032;-50
2021/06/28 04:29:13;;;;;;;4.03;2.70;;;;;;;;;;5064081;28;20021;-50
2021/06/28 04:31:39;;;;;;;4.55;2.92;;;;;;;;;;5064633;28;20458;-50
2021/06/28 04:34:05;;;;;;;4.78;2.45;;;;;;;;;;5074123;28;20311;-50
2021/06/28 04:36:31;;;;;;;4.32;2.63;;;;;;;;;;5075306;28;20028;-50
2021/06/28 04:38:57;;;;;;;4.90;2.40;;;;;;;;;;5074826;28;20043;-50
2021/06/28 04:41:23;;;;;;;7.55;2.63;;;;;;;;;;5074282;28;20482;-50
2021/06/28 04:43:49;;;;;;;7.38;2.80;;;;;;;;;;5075264;28;20104;-50
2021/06/28 04:46:15;;;;;;;7.93;2.28;;;;;;;;;;5075320;28;20024;-50
2021/06/28 04:48:41;;;;;;;2.50;2.15;;;;;;;;;;5072876;28;20013;-50
2021/06/28 04:51:07;;;;;;;5.05;2.55;;;;;;;;;;5074138;28;20115;-50
2021/06/28 04:53:33;;;;;;;2.95;2.50;;;;;;;;;;5074729;28;20439;-51
2021/06/28 04:55:59;;;;;;;7.65;3.13;;;;;;;;;;5075183;28;20079;-50
2021/06/28 04:58:25;;;;;;;3.08;2.60;;;;;;;;;;5074775;28;20025;-50
2021/06/28 05:00:51;;;;;;;6.10;2.40;;;;;;;;;;5073952;28;20089;-50
2021/06/28 05:03:17;;;;;;;3.53;2.83;;;;;;;;;;5074317;28;20021;-50
2021/06/28 05:05:43;;;;;;;9.88;2.80;;;;;;;;;;5075270;28;20021;-50
2021/06/28 05:08:09;;;;;;;4.35;2.58;;;;;;;;;;5074305;28;20321;-50
2021/06/28 05:10:35;;;;;;;5.85;2.67;;;;;;;;;;5074095;28;20116;-50
2021/06/28 05:13:01;;;;;;;3.38;2.30;;;;;;;;;;5074525;28;20462;-50
2021/06/28 05:15:27;;;;;;;8.80;4.10;;;;;;;;;;5074769;28;20027;-50
2021/06/28 05:17:53;;;;;;;6.07;3.25;;;;;;;;;;5074429;28;20344;-50
2021/06/28 05:20:19;;;;;;;6.13;2.97;;;;;;;;;;5073598;28;20040;-50
2021/06/28 05:22:45;;;;;;;6.35;3.00;;;;;;;;;;5074358;28;20020;-50
2021/06/28 05:25:12;;;;;;;3.58;3.00;;;;;;;;;;5074290;28;20470;-50
2021/06/28 05:27:38;;;;;;;7.03;3.65;;;;;;;;;;5074032;28;20075;-50
2021/06/28 05:30:07;;;;;;;7.53;3.40;;;;;;;;;;5074244;28;20028;-50
2021/06/28 05:32:33;;;;;;;5.30;3.47;;;;;;;;;;5072900;28;20035;-50
2021/06/28 05:35:01;;;;;;;8.82;3.13;;;;;;;;;;5071917;28;20387;-50
2021/06/28 05:37:27;;;;;;;4.25;3.08;;;;;;;;;;5070855;28;20017;-50
2021/06/28 05:39:53;;;;;;;4.32;3.10;;;;;;;;;;5073432;28;20086;-50
2021/06/28 05:42:19;;;;;;;4.68;3.15;;;;;;;;;;5072986;28;20024;-50
2021/06/28 05:44:45;;;;;;;3.85;3.13;;;;;;;;;;5074185;28;20020;-50
2021/06/28 05:47:13;;;;;;;6.28;4.65;;;;;;;;;;5074346;28;20052;-50
2021/06/28 05:49:41;;;;;;;5.35;3.38;;;;;;;;;;5073358;28;20456;-50
2021/06/28 05:52:07;;;;;;;6.55;4.20;;;;;;;;;;5073431;28;20396;-50
2021/06/28 05:54:33;;;;;;;5.03;3.13;;;;;;;;;;5073823;28;20115;-51
2021/06/28 05:57:00;;;;;;;5.03;3.10;;;;;;;;;;5073398;28;20467;-50
2021/06/28 05:59:26;;;;;;;8.90;3.42;;;;;;;;;;5073531;28;20033;-50
2021/06/28 06:01:52;;;;;;;4.22;3.17;;;;;;;;;;5072594;28;20029;-50
2021/06/28 06:04:18;;;;;;;12.00;4.22;;;;;;;;;;5073571;28;20111;-50
2021/06/28 06:06:45;;;;;;;3.67;3.13;;;;;;;;;;5073602;28;20465;-50
2021/06/28 06:09:11;;;;;;;4.53;3.13;;;;;;;;;;5073585;28;20033;-50
2021/06/28 06:11:37;;;;;;;9.27;3.53;;;;;;;;;;5072668;28;20032;-50
2021/06/28 06:14:03;;;;;;;4.97;3.40;;;;;;;;;;5073214;28;20032;-50
2021/06/28 06:16:30;;;;;;;4.45;3.05;;;;;;;;;;5072871;28;20455;-50
2021/06/28 06:18:56;;;;;;;7.90;3.17;;;;;;;;;;5070884;28;20024;-51
2021/06/28 06:21:25;;;;;;;9.50;3.10;;;;;;;;;;5072065;28;20465;-50
2021/06/28 06:23:52;;;;;;;5.03;3.13;;;;;;;;;;5073357;28;20047;-50
2021/06/28 06:26:18;;;;;;;4.70;3.17;;;;;;;;;;5073666;28;20259;-50
2021/06/28 06:28:44;;;;;;;5.32;3.03;;;;;;;;;;5072632;28;20504;-50
2021/06/28 06:31:11;;;;;;;4.60;3.35;;;;;;;;;;5072346;28;20020;-50
2021/06/28 06:33:37;;;;;;;5.80;3.58;;;;;;;;;;5071622;28;20052;-50
2021/06/28 06:36:03;;;;;;;4.55;3.03;;;;;;;;;;5072636;28;20016;-50
2021/06/28 06:38:29;;;;;;;8.73;3.28;;;;;;;;;;5073147;28;20028;-50
2021/06/28 06:40:55;;;;;;;4.40;3.58;;;;;;;;;;5072310;28;20043;-50
2021/06/28 06:43:21;;;;;;;3.63;3.20;;;;;;;;;;5072763;28;20021;-50
2021/06/28 06:45:47;;;;;;;4.50;3.60;;;;;;;;;;5073005;28;20033;-50
2021/06/28 06:48:14;;;;;;;7.63;3.78;;;;;;;;;;5072851;28;20096;-50
2021/06/28 06:50:40;;;;;;;5.07;3.47;;;;;;;;;;5072595;28;20020;-50
2021/06/28 06:53:06;;;;;;;4.35;3.30;;;;;;;;;;5072837;28;20478;-50
2021/06/28 06:55:34;;;;;;;13.40;4.40;;;;;;;;;;5073282;28;20017;-50
2021/06/28 06:58:00;;;;;;;4.32;3.55;;;;;;;;;;5073243;28;20060;-50
2021/06/28 07:00:26;;;;;;;6.53;4.20;;;;;;;;;;5071450;28;20039;-50
2021/06/28 07:02:53;;;;;;;8.15;3.53;;;;;;;;;;5073104;28;20025;-50
2021/06/28 07:05:20;;;;;;;14.85;5.63;;;;;;;;;;5072729;28;20078;-50
2021/06/28 07:07:46;;;;;;;9.35;4.60;;;;;;;;;;5072942;28;20032;-50
2021/06/28 07:10:13;;;;;;;7.65;4.03;;;;;;;;;;5071662;28;20112;-50
2021/06/28 07:12:39;;;;;;;14.10;4.72;;;;;;;;;;5075085;28;20029;-50
2021/06/28 07:15:06;;;;;;;8.30;4.65;;;;;;;;;;5076458;28;20355;-50
2021/06/28 07:17:32;;;;;;;7.68;4.85;;;;;;;;;;5076789;28;20021;-50
2021/06/28 07:19:58;;;;;;;10.40;5.13;;;;;;;;;;5076404;28;20048;-50
2021/06/28 07:22:24;;;;;;;10.15;5.47;;;;;;;;;;5076273;28;20099;-50
2021/06/28 07:24:50;;;;;;;6.63;4.45;;;;;;;;;;5076687;28;20033;-50
2021/06/28 07:27:17;;;;;;;8.60;4.53;;;;;;;;;;5076585;28;20352;-50
2021/06/28 07:29:43;;;;;;;15.52;5.15;;;;;;;;;;5076296;28;20021;-50
2021/06/28 07:32:09;;;;;;;10.75;5.65;;;;;;;;;;5075538;28;20056;-50
2021/06/28 07:34:35;;;;;;;11.05;6.28;;;;;;;;;;5076550;28;20025;-51
2021/06/28 07:37:01;;;;;;;10.65;4.53;;;;;;;;;;5076248;28;20363;-50
2021/06/28 07:39:27;;;;;;;10.05;5.82;;;;;;;;;;5074470;28;20037;-50
2021/06/28 07:41:53;;;;;;;16.73;6.35;;;;;;;;;;5075619;28;20024;-50
2021/06/28 07:44:22;;;;;;;19.45;4.82;;;;;;;;;;5076618;28;20020;-50
2021/06/28 07:46:49;;;;;;;7.53;3.80;;;;;;;;;;5076268;28;20081;-51
2021/06/28 07:49:15;;;;;;;6.25;3.72;;;;;;;;;;5075793;28;20055;-50
2021/06/28 07:51:42;;;;;;;5.07;3.50;;;;;;;;;;5075260;28;20074;-51
2021/06/28 07:54:09;;;;;;;5.53;3.65;;;;;;;;;;5076186;28;20111;-50
2021/06/28 07:56:36;;;;;;;9.52;4.28;;;;;;;;;;5076181;28;20123;-50
2021/06/28 07:59:02;;;;;;;9.38;4.55;;;;;;;;;;5075462;28;20032;-51
2021/06/28 08:01:29;;;;;;;15.23;4.22;;;;;;;;;;5075295;28;20025;-51
2021/06/28 08:03:55;;;;;;;20.98;6.50;;;;;;;;;;5074721;28;20082;-51
2021/06/28 08:06:21;;;;;;;5.80;3.85;;;;;;;;;;5074672;28;20032;-50
2021/06/28 08:08:50;;;;;;;5.22;3.35;;;;;;;;;;5075770;28;20025;-51
2021/06/28 08:11:16;;;;;;;7.18;3.70;;;;;;;;;;5075234;28;20107;-50
2021/06/28 08:13:45;;;;;;;25.25;4.95;;;;;;;;;;5075730;28;20074;-51
2021/06/28 08:16:11;;;;;;;71.93;9.25;;;;;;;;;;5075141;28;20111;-51
2021/06/28 08:18:37;;;;;;;5.70;3.58;;;;;;;;;;5075641;28;20067;-50
2021/06/28 08:21:04;;;;;;;9.63;3.97;;;;;;;;;;5074464;28;20082;-51
2021/06/28 08:23:30;;;;;;;13.43;6.80;;;;;;;;;;5075261;28;20355;-50
2021/06/28 08:25:56;;;;;;;8.95;4.57;;;;;;;;;;5075978;28;20037;-51
2021/06/28 08:28:22;;;;;;;18.88;4.20;;;;;;;;;;5075227;28;20025;-50
2021/06/28 08:30:48;;;;;;;5.10;3.90;;;;;;;;;;5074528;28;20036;-50
2021/06/28 08:33:14;;;;;;;5.90;4.00;;;;;;;;;;5075400;28;20104;-51
2021/06/28 08:35:41;;;;;;;5.03;3.60;;;;;;;;;;5075752;28;20103;-50
2021/06/28 08:38:07;;;;;;;4.18;3.33;;;;;;;;;;5075062;28;20070;-50
2021/06/28 08:40:34;;;;;;;9.20;3.65;;;;;;;;;;5074742;28;20127;-51
2021/06/28 08:43:00;;;;;;;4.40;2.97;;;;;;;;;;5075460;28;20214;-50
2021/06/28 08:45:27;;;;;;;3.85;2.97;;;;;;;;;;5074660;28;20454;-50
2021/06/28 08:47:54;;;;;;;4.13;3.00;;;;;;;;;;5075163;28;20447;-50
2021/06/28 08:50:20;;;;;;;5.28;3.47;;;;;;;;;;5074437;28;20016;-50
2021/06/28 08:52:46;;;;;;;4.78;3.28;;;;;;;;;;5074994;28;20035;-51
2021/06/28 08:55:13;;;;;;;5.82;3.35;;;;;;;;;;5075128;28;20020;-50
2021/06/28 08:57:39;;;;;;;3.65;3.08;;;;;;;;;;5075161;28;20029;-50
2021/06/28 09:00:09;;;;;;;4.35;3.30;;;;;;;;;;5073564;28;20033;-50
2021/06/28 09:02:35;;;;;;;7.20;3.78;;;;;;;;;;5074848;28;20020;-51
2021/06/28 09:05:06;;;;;;;4.70;3.10;;;;;;;;;;5074551;28;20456;-50
2021/06/28 09:07:32;;;;;;;5.75;3.13;;;;;;;;;;5074918;28;20020;-50
2021/06/28 09:09:58;;;;;;;6.47;3.38;;;;;;;;;;5074887;28;20037;-50
2021/06/28 09:12:24;;;;;;;4.53;3.33;;;;;;;;;;5074176;28;20016;-50
2021/06/28 09:14:54;;;;;;;4.25;3.10;;;;;;;;;;5074505;28;20033;-50
2021/06/28 09:17:24;;;;;;;5.55;2.95;;;;;;;;;;5074365;28;20111;-50
2021/06/28 09:20:09;;;;;;;8.30;2.83;;;;;;;;;;5074187;28;20371;-50
2021/06/28 09:22:35;;;;;;;3.38;2.33;;;;;;;;;;5074367;28;20028;-50
2021/06/28 09:25:00;;;;;;;2.85;2.55;;;;;;;;;;5073721;28;20036;-50
2021/06/28 09:27:27;;;;;;;5.07;2.75;;;;;;;;;;5074637;28;20108;-50
2021/06/28 09:29:59;;;;;;;2.75;2.25;;;;;;;;;;5074069;28;20367;-51
2021/06/28 09:32:26;;;;;;;3.85;2.45;;;;;;;;;;5073804;28;20024;-50
2021/06/28 09:34:55;;;;;;;8.00;2.53;;;;;;;;;;5073295;28;20052;-50
2021/06/28 09:37:24;;;;;;;4.10;2.65;;;;;;;;;;5074172;28;20032;-50
2021/06/28 09:39:51;;;;;;;3.92;2.65;;;;;;;;;;5074264;28;20043;-50
2021/06/28 09:42:24;;;;;;;4.60;2.55;;;;;;;;;;5073423;28;20021;-51
2021/06/28 09:44:50;;;;;;;6.07;2.47;;;;;;;;;;5073900;28;20459;-50
2021/06/28 09:47:17;;;;;;;6.22;2.30;;;;;;;;;;5073697;28;20063;-50
2021/06/28 09:50:07;;;;;;;4.68;2.40;;;;;;;;;;5074059;28;20043;-50
2021/06/28 09:52:39;;;;;;;16.25;2.80;;;;;;;;;;5065829;28;20037;-50
2021/06/28 09:55:22;;;;;;;2.70;2.50;;;;;;;;;;5073864;28;20112;-50
2021/06/28 09:58:07;;;;;;;4.45;2.80;;;;;;;;;;5073765;28;20028;-50
2021/06/28 10:00:34;;;;;;;5.72;2.72;;;;;;;;;;5072176;28;20044;-50
2021/06/28 10:03:00;;;;;;;6.25;2.25;;;;;;;;;;5073372;28;20032;-50
2021/06/28 10:05:35;;;;;;;3.10;1.98;;;;;;;;;;5072707;28;20031;-51
2021/06/28 10:08:01;;;;;;;3.10;2.38;;;;;;;;;;5073778;28;20039;-51
2021/06/28 10:10:28;;;;;;;4.15;2.63;;;;;;;;;;5072497;28;20035;-50
2021/06/28 10:12:54;;;;;;;3.33;1.83;;;;;;;;;;5073047;28;20025;-51
2021/06/28 10:15:21;;;;;;;8.60;2.28;;;;;;;;;;5073462;28;20329;-50
2021/06/28 10:17:48;;;;;;;7.75;1.90;;;;;;;;;;5073187;28;20032;-50
2021/06/28 10:20:18;;;;;;;2.40;1.90;;;;;;;;;;5072433;28;20120;-50
2021/06/28 10:22:45;;;;;;;4.45;2.47;;;;;;;;;;5073286;28;20024;-50
2021/06/28 10:25:12;;;;;;;4.95;2.28;;;;;;;;;;5073731;28;20413;-50
2021/06/28 10:27:38;;;;;;;5.78;2.35;;;;;;;;;;5072704;28;20024;-50
2021/06/28 10:30:09;;;;;;;2.90;1.60;;;;;;;;;;5072912;28;20029;-50
2021/06/28 10:32:35;;;;;;;5.25;1.70;;;;;;;;;;5072716;28;20029;-50
2021/06/28 10:35:02;;;;;;;1.90;1.70;;;;;;;;;;5073148;28;20028;-50
2021/06/28 10:37:38;;;;;;;4.53;1.85;;;;;;;;;;5073197;28;20020;-51
2021/06/28 10:40:12;;;;;;;2.60;1.70;;;;;;;;;;5072245;28;20029;-50
2021/06/28 10:42:40;;;;;;;3.65;2.03;;;;;;;;;;5072934;28;20050;-50
2021/06/28 10:45:07;;;;;;;2.15;1.42;;;;;;;;;;5072923;28;20452;-51
2021/06/28 10:47:33;;;;;;;2.90;2.10;;;;;;;;;;5072711;28;20070;-50
2021/06/28 10:49:59;;;;;;;2.25;1.98;;;;;;;;;;5072840;28;20029;-51
2021/06/28 10:52:34;;;;;;;2.92;1.85;;;;;;;;;;5071571;28;20020;-50
2021/06/28 10:55:20;;;;;;;2.70;1.75;;;;;;;;;;5073160;28;20071;-50
2021/06/28 10:57:48;;;;;;;1.83;1.50;;;;;;;;;;5062151;28;20036;-50
2021/06/28 11:00:14;;;;;;;2.72;1.90;;;;;;;;;;5071948;28;20029;-50
2021/06/28 11:02:41;;;;;;;2.53;1.80;;;;;;;;;;5072873;28;20055;-50
2021/06/28 11:05:08;;;;;;;1.90;1.67;;;;;;;;;;5072362;28;20106;-50
2021/06/28 11:07:45;;;;;;;8.52;2.20;;;;;;;;;;5072865;28;20024;-50
2021/06/28 11:10:14;;;;;;;3.92;1.70;;;;;;;;;;5072105;28;20037;-50
2021/06/28 11:12:40;;;;;;;6.38;2.30;;;;;;;;;;5072651;28;20039;-50
2021/06/28 11:15:23;;;;;;;1.30;1.20;;;;;;;;;;5073208;28;20056;-50
2021/06/28 11:17:56;;;;;;;2.00;1.38;;;;;;;;;;5072656;28;20028;-50
2021/06/28 11:20:25;;;;;;;1.58;1.48;;;;;;;;;;5071582;28;20478;-50
2021/06/28 11:23:00;;;;;;;4.57;1.80;;;;;;;;;;5072612;28;20063;-50
2021/06/28 11:25:27;;;;;;;1.83;1.33;;;;;;;;;;5072775;28;20020;-50
2021/06/28 11:27:59;;;;;;;19.48;1.95;;;;;;;;;;5071711;28;20154;-50
2021/06/28 11:30:26;;;;;;;7.10;1.83;;;;;;;;;;5072126;28;20020;-51
2021/06/28 11:33:06;;;;;;;4.50;1.70;;;;;;;;;;5072358;28;20117;-50
2021/06/28 11:35:32;;;;;;;;;;;;;;;;;;5072968;28;20367;-50
2021/06/28 11:38:17;;;;;;;5.72;2.58;;;;;;;;;;5071754;28;19911;-50
2021/06/28 11:40:50;;;;;;;18.10;1.75;;;;;;;;;;5071182;28;20424;-50
2021/06/28 11:43:33;;;;;;;1.92;1.60;;;;;;;;;;5072722;28;20444;-50
2021/06/28 11:45:59;;;;;;;1.70;1.60;;;;;;;;;;5072560;28;20052;-51
2021/06/28 11:48:31;;;;;;;2.50;1.48;;;;;;;;;;5072114;28;20025;-50
2021/06/28 11:50:58;;;;;;;1.40;1.30;;;;;;;;;;5071335;28;20029;-51
2021/06/28 11:53:24;;;;;;;1.90;1.52;;;;;;;;;;5072364;28;20025;-51
2021/06/28 11:55:50;;;;;;;2.22;1.60;;;;;;;;;;5072389;28;20036;-50
2021/06/28 11:58:17;;;;;;;9.27;1.77;;;;;;;;;;5072277;28;20112;-50
2021/06/28 12:00:43;;;;;;;1.45;1.35;;;;;;;;;;5075132;28;20032;-50
2021/06/28 12:03:15;;;;;;;2.03;1.63;;;;;;;;;;5076115;28;20087;-50
2021/06/28 12:05:42;;;;;;;1.85;1.63;;;;;;;;;;5076110;28;20056;-50
2021/06/28 12:08:08;;;;;;;4.22;1.70;;;;;;;;;;5075430;28;20497;-50
2021/06/28 12:10:35;;;;;;;13.57;1.85;;;;;;;;;;5075378;28;20060;-51
2021/06/28 12:13:01;;;;;;;15.07;1.70;;;;;;;;;;5076041;28;20031;-50
2021/06/28 12:15:30;;;;;;;2.13;1.58;;;;;;;;;;5075701;28;20028;-50
2021/06/28 12:17:56;;;;;;;22.47;1.83;;;;;;;;;;5075040;28;20440;-50
2021/06/28 12:20:23;;;;;;;12.43;2.08;;;;;;;;;;5074781;28;20525;-51
2021/06/28 12:22:50;;;;;;;7.88;1.75;;;;;;;;;;5075815;28;20067;-50
2021/06/28 12:25:17;;;;;;;3.25;1.55;;;;;;;;;;5075645;28;20025;-51
2021/06/28 12:27:44;;;;;;;8.05;2.05;;;;;;;;;;5075461;28;20081;-50
2021/06/28 12:30:14;;;;;;;3.97;1.85;;;;;;;;;;5074749;28;20058;-50
2021/06/28 12:32:40;;;;;;;;;;;;;;;;;;5075523;28;20024;-50
2021/06/28 12:35:07;;;;;;;10.18;2.08;;;;;;;;;;5075511;28;19912;-50
2021/06/28 12:37:38;;;;;;;2.40;1.45;;;;;;;;;;5075604;28;20024;-50
2021/06/28 12:40:28;;;;;;;3.35;1.70;;;;;;;;;;5074627;28;20035;-50
2021/06/28 12:42:54;;;;;;;;;;;;;;;;;;5075321;28;20351;-50
2021/06/28 12:45:21;;;;;;;3.17;2.25;;;;;;;;;;5075461;28;19911;-50
2021/06/28 12:47:49;;;;;;;3.85;1.70;;;;;;;;;;5074653;28;20040;-50
2021/06/28 12:50:17;;;;;;;3.10;1.88;;;;;;;;;;5074473;28;20029;-50
2021/06/28 12:52:43;;;;;;;1.92;1.73;;;;;;;;;;5075304;28;20104;-50
2021/06/28 12:55:13;;;;;;;4.20;1.80;;;;;;;;;;5075311;28;20025;-51
2021/06/28 12:57:41;;;;;;;3.72;1.80;;;;;;;;;;5074937;28;20032;-51
2021/06/28 13:00:16;;;;;;;3.00;1.85;;;;;;;;;;5074390;28;20029;-51
2021/06/28 13:02:42;;;;;;;3.45;1.75;;;;;;;;;;5074640;28;20039;-50
2021/06/28 13:05:09;;;;;;;3.63;1.75;;;;;;;;;;5074987;28;20021;-50
2021/06/28 13:07:35;;;;;;;3.08;1.60;;;;;;;;;;5074817;28;20029;-50
2021/06/28 13:10:03;;;;;;;8.30;1.92;;;;;;;;;;5074091;28;20017;-50
2021/06/28 13:12:29;;;;;;;2.15;1.80;;;;;;;;;;5074221;28;20028;-50
2021/06/28 13:15:20;;;;;;;5.93;2.00;;;;;;;;;;5074957;28;20020;-50
2021/06/28 13:17:53;;;;;;;5.53;2.00;;;;;;;;;;5074602;28;20032;-50
2021/06/28 13:20:20;;;;;;;5.15;1.95;;;;;;;;;;5073516;28;20036;-51
2021/06/28 13:22:46;;;;;;;2.22;1.90;;;;;;;;;;5074132;28;20101;-50
2021/06/28 13:25:17;;;;;;;2.72;2.13;;;;;;;;;;5074648;28;20025;-50
2021/06/28 13:27:43;;;;;;;1.77;1.58;;;;;;;;;;5074469;28;20021;-50
2021/06/28 13:30:16;;;;;;;6.00;1.90;;;;;;;;;;5073947;28;20551;-50
2021/06/28 13:32:42;;;;;;;5.47;2.25;;;;;;;;;;5073883;28;20031;-50
2021/06/28 13:35:08;;;;;;;5.22;1.90;;;;;;;;;;5074195;28;20070;-51
2021/06/28 13:37:37;;;;;;;6.10;1.85;;;;;;;;;;5074283;28;20024;-51
2021/06/28 13:40:19;;;;;;;15.45;2.13;;;;;;;;;;5071912;28;20041;-51
2021/06/28 13:42:48;;;;;;;9.23;2.08;;;;;;;;;;5074119;28;20020;-50
2021/06/28 13:45:15;;;;;;;11.30;2.45;;;;;;;;;;5074319;28;20102;-51
2021/06/28 13:48:01;;;;;;;6.43;2.25;;;;;;;;;;5073787;28;20051;-50
2021/06/28 13:50:29;;;;;;;2.00;1.80;;;;;;;;;;5073305;28;20418;-51
2021/06/28 13:52:56;;;;;;;21.17;2.35;;;;;;;;;;5073424;28;20021;-50
2021/06/28 13:55:22;;;;;;;5.70;2.13;;;;;;;;;;5073777;28;20029;-50
2021/06/28 13:57:53;;;;;;;5.22;2.42;;;;;;;;;;5073554;28;20347;-50
2021/06/28 14:00:19;;;;;;;;;;;;;;;;;;5073334;28;20029;-50
2021/06/28 14:02:45;;;;;;;4.38;2.17;;;;;;;;;;5073972;28;19911;-51
2021/06/28 14:05:11;;;;;;;7.68;2.28;;;;;;;;;;5073343;28;20175;-50
2021/06/28 14:07:37;;;;;;;9.23;2.47;;;;;;;;;;5073515;28;20070;-50
2021/06/28 14:10:04;;;;;;;4.80;2.17;;;;;;;;;;5073183;28;20074;-51
2021/06/28 14:12:30;;;;;;;2.25;1.90;;;;;;;;;;5073146;28;20101;-51
2021/06/28 14:14:56;;;;;;;2.53;1.90;;;;;;;;;;5073233;28;20018;-51
2021/06/28 14:17:22;;;;;;;6.55;1.95;;;;;;;;;;5073417;28;20074;-50
2021/06/28 14:19:48;;;;;;;6.68;2.00;;;;;;;;;;5072996;28;20370;-51
2021/06/28 14:22:14;;;;;;;3.67;1.55;;;;;;;;;;5072030;28;20020;-50
2021/06/28 14:24:40;;;;;;;5.65;2.40;;;;;;;;;;5073350;28;20025;-50
2021/06/28 14:27:06;;;;;;;3.67;2.00;;;;;;;;;;5072912;28;20119;-50
2021/06/28 14:29:33;;;;;;;2.22;1.83;;;;;;;;;;5072312;28;20024;-51
2021/06/28 14:32:01;;;;;;;16.77;2.05;;;;;;;;;;5072256;28;20032;-51
2021/06/28 14:34:27;;;;;;;3.15;1.73;;;;;;;;;;5073047;28;20104;-50
2021/06/28 14:36:53;;;;;;;3.45;2.00;;;;;;;;;;5073346;28;20111;-50
2021/06/28 14:39:19;;;;;;;7.35;2.03;;;;;;;;;;5073018;28;20111;-50
2021/06/28 14:41:45;;;;;;;2.92;1.90;;;;;;;;;;5071905;28;20060;-51
2021/06/28 14:44:11;;;;;;;2.28;1.58;;;;;;;;;;5065478;28;20069;-51